createdAt,value
2022-08-11T00:02:15.100Z,73.21
2022-08-11T00:04:47.441Z,73.23
2022-08-11T00:07:20.220Z,73.49
2022-08-11T00:09:52.915Z,73.84
2022-08-11T00:12:24.998Z,73.87
2022-08-11T00:15:01.740Z,73.99
2022-08-11T00:17:35.778Z,73.93
2022-08-11T00:20:16.253Z,74.17
2022-08-11T00:22:50.074Z,74.17
2022-08-11T00:25:24.116Z,74.29
2022-08-11T00:27:56.066Z,74.66
2022-08-11T00:30:39.229Z,74.83
2022-08-11T00:33:11.429Z,75.26
2022-08-11T00:35:51.648Z,75.27
2022-08-11T00:38:34.260Z,75.16
2022-08-11T00:41:19.447Z,75.25
2022-08-11T00:44:20.470Z,75.02
2022-08-11T00:47:04.174Z,75.11
2022-08-11T00:49:47.949Z,75.25
2022-08-11T00:52:34.032Z,74.93
2022-08-11T00:55:37.834Z,75.21
2022-08-11T00:58:41.214Z,75.64
2022-08-11T01:01:28.652Z,76.19
2022-08-11T01:04:31.282Z,76.10
2022-08-11T01:08:00.637Z,76.17
2022-08-11T01:10:50.048Z,75.77
2022-08-11T01:13:55.065Z,76.03
2022-08-11T01:16:57.872Z,76.40
2022-08-11T01:20:46.927Z,76.26
2022-08-11T01:23:25.943Z,76.29
2022-08-11T01:26:44.924Z,75.99
2022-08-11T01:29:51.874Z,76.11
2022-08-11T01:32:55.339Z,76.59
2022-08-11T01:36:02.211Z,76.66
2022-08-11T01:39:12.176Z,76.63
2022-08-11T01:42:57.975Z,76.63
2022-08-11T01:45:37.810Z,76.45
2022-08-11T01:48:17.451Z,76.51
2022-08-11T01:51:06.737Z,76.91
2022-08-11T01:53:52.703Z,77.35
2022-08-11T01:56:39.315Z,77.19
2022-08-11T01:59:21.073Z,77.02
2022-08-11T02:02:09.463Z,76.90
2022-08-11T02:04:54.017Z,77.01
2022-08-11T02:07:38.257Z,76.85
2022-08-11T02:10:40.109Z,76.90
2022-08-11T02:13:21.605Z,77.09
2022-08-11T02:16:18.237Z,77.18
2022-08-11T02:19:14.954Z,77.27
2022-08-11T02:22:15.095Z,77.15
2022-08-11T02:24:56.714Z,77.68
2022-08-11T02:27:38.129Z,77.59
2022-08-11T02:30:15.190Z,77.82
2022-08-11T02:33:10.681Z,78.13
2022-08-11T02:35:47.881Z,78.31
2022-08-11T02:38:27.625Z,77.80
2022-08-11T02:41:28.542Z,77.99
2022-08-11T02:44:17.105Z,78.06
2022-08-11T02:46:59.957Z,78.40
2022-08-11T02:49:59.955Z,78.38
2022-08-11T02:52:47.273Z,78.96
2022-08-11T02:55:55.747Z,78.81
2022-08-11T02:58:30.606Z,78.96
2022-08-11T03:01:13.685Z,78.56
2022-08-11T03:03:54.829Z,78.77
2022-08-11T03:06:35.785Z,78.87
2022-08-11T03:09:18.106Z,79.15
2022-08-11T03:12:17.292Z,79.42
2022-08-11T03:15:14.866Z,79.80
2022-08-11T03:18:04.044Z,79.73
2022-08-11T03:20:45.819Z,80.03
2022-08-11T03:23:28.439Z,80.31
2022-08-11T03:26:08.686Z,80.40
2022-08-11T03:28:49.028Z,80.84
2022-08-11T03:31:28.493Z,81.18
2022-08-11T03:34:07.582Z,81.18
2022-08-11T03:37:16.880Z,81.62
2022-08-11T03:40:01.235Z,81.36
2022-08-11T03:42:43.716Z,81.73
2022-08-11T03:45:27.177Z,82.10
2022-08-11T03:48:15.473Z,82.00
2022-08-11T03:51:03.035Z,82.23
2022-08-11T03:57:34.996Z,81.77
2022-08-11T04:00:45.625Z,81.81
2022-08-11T04:03:54.368Z,81.81
2022-08-11T04:07:02.741Z,82.14
2022-08-11T04:10:03.869Z,82.54
2022-08-11T04:13:13.196Z,82.61
2022-08-11T04:16:12.036Z,82.52
2022-08-11T04:19:13.360Z,82.46
2022-08-11T04:22:23.962Z,82.32
2022-08-11T04:25:19.566Z,82.25
2022-08-11T04:28:28.836Z,82.17
2022-08-11T04:31:51.109Z,81.97
2022-08-11T04:34:42.555Z,81.85
2022-08-11T04:37:34.762Z,81.93
2022-08-11T04:40:44.368Z,81.89
2022-08-11T04:44:05.579Z,81.68
2022-08-11T04:48:01.803Z,81.57
2022-08-11T04:51:16.518Z,81.51
2022-08-11T06:25:00.199Z,70.46
2022-08-11T06:39:00.212Z,70.28
2022-08-11T06:41:50.750Z,69.83
2022-08-11T06:44:32.482Z,69.96
2022-08-11T06:47:12.481Z,69.59
2022-08-11T06:50:06.756Z,69.39
2022-08-11T06:52:42.408Z,69.31
2022-08-11T06:55:57.142Z,69.08
2022-08-11T06:58:52.006Z,68.90
2022-08-11T07:01:36.640Z,68.40
2022-08-11T07:04:11.846Z,68.48
2022-08-11T07:07:17.353Z,68.48
2022-08-11T07:10:39.039Z,68.40
2022-08-11T07:13:45.145Z,68.39
2022-08-11T07:16:25.784Z,68.56
2022-08-11T07:19:21.194Z,68.39
2022-08-11T07:22:14.686Z,68.35
2022-08-11T07:25:10.533Z,69.27
2022-08-11T07:28:03.524Z,69.55
2022-08-11T07:30:40.884Z,69.26
2022-08-11T07:34:07.401Z,68.85
2022-08-11T07:36:12.824Z,68.39
2022-08-11T07:38:49.711Z,67.24
2022-08-11T07:41:23.698Z,66.90
2022-08-11T07:44:08.973Z,67.59
2022-08-11T07:47:02.217Z,67.84
2022-08-11T07:49:54.152Z,68.01
2022-08-11T07:52:33.899Z,67.86
2022-08-11T07:55:13.027Z,65.11
2022-08-11T07:58:15.499Z,64.41
2022-08-11T08:01:21.261Z,63.10
2022-08-11T08:04:13.407Z,61.25
2022-08-11T08:07:03.527Z,60.61
2022-08-11T08:09:55.415Z,60.94
2022-08-11T08:12:46.253Z,59.94
2022-08-11T08:15:37.211Z,58.86
2022-08-11T08:18:27.110Z,58.36
2022-08-11T08:21:12.312Z,58.14
2022-08-11T08:23:46.311Z,58.28
2022-08-11T08:26:37.289Z,58.32
2022-08-11T08:29:27.986Z,58.14
2022-08-11T08:32:00.363Z,58.39
2022-08-11T08:34:33.577Z,57.92
2022-08-11T08:37:16.035Z,57.39
2022-08-11T08:39:59.519Z,56.88
2022-08-11T08:42:34.319Z,55.47
2022-08-11T08:45:10.817Z,55.53
2022-08-11T08:47:52.932Z,55.00
2022-08-11T08:50:48.346Z,55.34
2022-08-11T08:53:24.567Z,54.45
2022-08-11T08:55:57.147Z,54.12
2022-08-11T08:58:31.042Z,53.83
2022-08-11T09:01:04.055Z,52.93
2022-08-11T09:04:04.650Z,53.28
2022-08-11T09:06:33.863Z,53.31
2022-08-11T09:09:05.956Z,53.62
2022-08-11T09:11:56.757Z,52.48
2022-08-11T09:14:55.217Z,50.82
2022-08-11T09:17:29.089Z,50.27
2022-08-11T09:20:05.224Z,49.52
2022-08-11T09:23:35.258Z,49.96
2022-08-11T09:26:08.913Z,50.49
2022-08-11T09:28:43.059Z,49.10
2022-08-11T09:31:16.975Z,49.50
2022-08-11T09:33:52.419Z,49.10
2022-08-11T09:36:42.778Z,48.53
2022-08-11T09:39:34.337Z,48.79
2022-08-11T09:42:11.430Z,48.58
2022-08-11T09:44:49.831Z,49.08
2022-08-11T09:47:24.856Z,48.99
2022-08-11T09:50:01.430Z,48.15
2022-08-11T09:52:48.090Z,46.41
2022-08-11T09:55:50.394Z,45.59
2022-08-11T09:58:42.584Z,45.85
2022-08-11T10:01:27.569Z,46.35
2022-08-11T10:04:05.075Z,46.95
2022-08-11T10:06:58.149Z,46.31
2022-08-11T10:09:35.913Z,45.22
2022-08-11T10:12:13.115Z,44.84
2022-08-11T10:15:06.527Z,45.53
2022-08-11T10:18:03.929Z,45.35
2022-08-11T10:20:40.225Z,45.92
2022-08-11T10:23:31.659Z,45.63
2022-08-11T10:26:23.511Z,45.09
2022-08-11T10:29:12.666Z,44.52
2022-08-11T10:32:31.654Z,44.92
2022-08-11T10:35:07.412Z,44.78
2022-08-11T10:38:07.357Z,44.61
2022-08-11T10:40:32.736Z,44.23
2022-08-11T10:43:07.614Z,44.22
2022-08-11T10:45:58.576Z,44.30
2022-08-11T10:48:33.335Z,44.11
2022-08-11T10:51:15.050Z,43.07
2022-08-11T10:54:06.231Z,42.99
2022-08-11T10:56:57.362Z,42.99
2022-08-11T10:59:31.063Z,42.44
2022-08-11T11:02:03.185Z,43.09
2022-08-11T11:04:50.951Z,43.19
2022-08-11T11:07:29.562Z,42.97
2022-08-11T11:10:06.100Z,42.24
2022-08-11T11:12:59.198Z,42.92
2022-08-11T11:15:50.735Z,42.33
2022-08-11T11:18:26.590Z,41.75
2022-08-11T11:21:02.706Z,41.40
2022-08-11T11:23:47.598Z,41.72
2022-08-11T11:26:39.945Z,41.31
2022-08-11T11:29:30.397Z,41.30
2022-08-11T11:32:38.903Z,40.56
2022-08-11T11:35:37.499Z,40.55
2022-08-11T11:38:13.956Z,40.62
2022-08-11T11:41:07.633Z,40.41
2022-08-11T11:43:40.127Z,40.36
2022-08-11T11:46:14.021Z,40.24
2022-08-11T11:48:47.022Z,41.06
2022-08-11T11:51:20.690Z,40.55
2022-08-11T11:53:53.657Z,39.39
2022-08-11T11:56:27.359Z,39.80
2022-08-11T11:59:17.761Z,38.89
2022-08-11T12:01:50.505Z,39.20
2022-08-11T12:04:26.662Z,39.47
2022-08-11T12:07:13.508Z,39.29
2022-08-11T12:09:47.759Z,38.64
2022-08-11T12:12:37.878Z,37.69
2022-08-11T12:15:12.791Z,38.27
2022-08-11T12:17:44.841Z,38.00
2022-08-11T12:20:33.514Z,38.62
2022-08-11T12:27:16.096Z,37.94
2022-08-11T12:29:55.534Z,37.94
2022-08-11T12:32:31.263Z,38.74
2022-08-11T12:35:03.621Z,38.38
2022-08-11T12:37:39.169Z,38.16
2022-08-11T12:41:15.051Z,37.69
2022-08-11T12:43:59.972Z,38.16
2022-08-11T12:46:37.837Z,38.23
2022-08-11T12:49:31.925Z,38.85
2022-08-11T12:52:13.541Z,38.19
2022-08-11T12:54:58.952Z,37.63
2022-08-11T12:57:54.925Z,37.34
2022-08-11T13:00:45.962Z,37.07
2022-08-11T13:03:37.961Z,36.62
2022-08-11T13:06:10.861Z,36.41
2022-08-11T13:08:48.818Z,35.78
2022-08-11T13:11:56.153Z,36.02
2022-08-11T13:14:33.237Z,36.71
2022-08-11T13:17:43.462Z,36.50
2022-08-11T13:20:20.205Z,36.36
2022-08-11T13:22:53.793Z,36.31
2022-08-11T13:25:32.737Z,36.69
2022-08-11T13:28:05.753Z,36.32
2022-08-11T13:30:55.611Z,35.36
2022-08-11T13:33:28.491Z,35.57
2022-08-11T13:36:01.185Z,35.09
2022-08-11T13:38:33.824Z,35.67
2022-08-11T13:41:27.326Z,36.49
2022-08-11T13:44:00.111Z,35.91
2022-08-11T13:46:35.444Z,36.17
2022-08-11T13:49:09.136Z,36.35
2022-08-11T13:51:41.681Z,35.98
2022-08-11T13:54:19.002Z,36.35
2022-08-11T13:56:54.030Z,36.08
2022-08-11T13:59:29.898Z,35.77
2022-08-11T14:02:22.923Z,35.61
2022-08-11T14:05:07.781Z,35.97
2022-08-11T14:07:43.091Z,35.81
2022-08-11T14:10:17.356Z,35.92
2022-08-11T14:13:13.690Z,36.51
2022-08-11T14:15:48.251Z,36.22
2022-08-11T14:18:24.277Z,36.27
2022-08-11T14:21:17.258Z,36.15
2022-08-11T14:23:55.224Z,36.27
2022-08-11T14:26:27.820Z,35.59
2022-08-11T14:29:03.190Z,35.26
2022-08-11T14:31:38.241Z,34.78
2022-08-11T14:34:14.722Z,34.90
2022-08-11T14:36:49.024Z,35.39
2022-08-11T14:39:23.360Z,35.33
2022-08-11T14:42:15.064Z,35.38
2022-08-11T14:45:08.029Z,35.18
2022-08-11T14:47:44.025Z,35.09
2022-08-11T14:50:23.257Z,35.16
2022-08-11T14:52:57.893Z,35.17
2022-08-11T14:55:51.584Z,35.03
2022-08-11T14:58:25.844Z,34.32
2022-08-11T15:01:01.072Z,34.32
2022-08-11T15:03:34.682Z,34.79
2022-08-11T15:06:07.477Z,34.81
2022-08-11T15:08:57.575Z,34.97
2022-08-11T15:11:50.121Z,34.50
2022-08-11T15:14:36.729Z,34.52
2022-08-11T15:17:10.046Z,34.97
2022-08-11T15:20:05.025Z,35.01
2022-08-11T15:22:54.982Z,35.04
2022-08-11T15:25:27.959Z,35.08
2022-08-11T15:28:19.356Z,34.69
2022-08-11T15:31:14.414Z,34.57
2022-08-11T15:34:10.410Z,34.35
2022-08-11T15:37:04.129Z,34.72
2022-08-11T15:40:02.199Z,34.78
2022-08-11T15:42:49.841Z,34.46
2022-08-11T15:45:40.375Z,34.60
2022-08-11T15:48:16.478Z,34.18
2022-08-11T15:50:53.627Z,34.44
2022-08-11T15:53:32.364Z,34.62
2022-08-11T15:56:07.513Z,34.70
2022-08-11T15:59:40.776Z,34.44
2022-08-11T16:02:16.134Z,33.60
2022-08-11T16:04:50.332Z,33.64
2022-08-11T16:07:27.267Z,34.10
2022-08-11T16:10:04.142Z,33.96
2022-08-11T16:12:41.982Z,34.76
2022-08-11T16:15:32.188Z,34.23
2022-08-11T16:18:06.698Z,33.56
2022-08-11T16:20:38.813Z,33.70
2022-08-11T16:23:11.652Z,33.64
2022-08-11T16:27:02.078Z,33.49
2022-08-11T16:28:39.895Z,33.29
2022-08-11T16:31:13.925Z,33.55
2022-08-11T16:33:50.240Z,33.60
2022-08-11T16:36:46.511Z,33.03
2022-08-11T16:39:19.747Z,33.05
2022-08-11T16:42:10.536Z,33.17
2022-08-11T16:45:21.253Z,33.00
2022-08-11T16:48:03.397Z,33.44
2022-08-11T16:50:50.023Z,33.56
2022-08-11T16:53:21.981Z,33.06
2022-08-11T16:56:55.349Z,33.28
2022-08-11T17:00:01.549Z,32.98
2022-08-11T17:02:55.780Z,33.44
2022-08-11T17:06:12.938Z,33.15
2022-08-11T17:09:06.325Z,33.10
2022-08-11T17:16:12.078Z,33.49
2022-08-11T17:18:50.079Z,33.94
2022-08-11T17:21:27.013Z,33.85
2022-08-11T17:24:08.517Z,34.33
2022-08-11T17:27:00.314Z,34.10
2022-08-11T17:29:54.524Z,34.08
2022-08-11T17:32:56.757Z,34.85
2022-08-11T17:35:38.966Z,34.90
2022-08-11T17:38:19.858Z,34.99
2022-08-11T17:41:18.451Z,35.54
2022-08-11T17:44:15.142Z,35.32
2022-08-11T17:47:06.483Z,35.43
2022-08-11T17:49:41.167Z,35.67
2022-08-11T17:52:35.515Z,36.37
2022-08-11T17:55:51.970Z,36.71
2022-08-11T17:58:39.605Z,37.14
2022-08-11T18:01:12.888Z,37.84
2022-08-11T18:03:53.079Z,37.81
2022-08-11T18:06:33.956Z,37.55
2022-08-11T18:09:29.371Z,37.98
2022-08-11T18:12:21.552Z,38.24
2022-08-11T18:15:12.896Z,38.11
2022-08-11T18:18:02.467Z,38.23
2022-08-11T18:20:55.134Z,38.33
2022-08-11T18:23:47.137Z,38.24
2022-08-11T18:26:42.572Z,38.44
2022-08-11T18:29:42.114Z,38.63
2022-08-11T18:32:49.819Z,39.00
2022-08-11T18:35:41.805Z,39.32
2022-08-11T18:38:35.657Z,39.40
2022-08-11T18:41:29.224Z,39.88
2022-08-11T18:44:23.589Z,40.01
2022-08-11T18:47:21.101Z,40.16
2022-08-11T18:50:26.627Z,40.59
2022-08-11T18:53:32.323Z,40.71
2022-08-11T18:56:22.626Z,40.90
2022-08-11T18:59:15.342Z,41.13
2022-08-11T19:02:05.665Z,41.15
2022-08-11T19:04:55.831Z,41.28
2022-08-11T19:07:47.413Z,41.43
2022-08-11T19:10:39.552Z,41.58
2022-08-11T19:13:29.993Z,42.11
2022-08-11T19:16:27.875Z,42.13
2022-08-11T19:19:19.432Z,42.40
2022-08-11T19:22:10.695Z,42.61
2022-08-11T19:25:04.098Z,42.84
2022-08-11T19:28:29.997Z,43.02
2022-08-11T19:31:21.741Z,43.56
2022-08-11T19:34:14.618Z,43.48
2022-08-11T19:37:06.375Z,43.64
2022-08-11T19:39:58.726Z,43.86
2022-08-11T19:42:49.808Z,44.12
2022-08-11T19:45:40.988Z,44.20
2022-08-11T19:48:35.457Z,44.53
2022-08-11T19:51:27.941Z,45.01
2022-08-11T19:54:22.726Z,45.41
2022-08-11T19:57:14.104Z,46.06
2022-08-11T20:00:05.121Z,46.23
2022-08-11T20:02:55.067Z,46.35
2022-08-11T20:05:55.691Z,46.61
2022-08-11T20:08:53.931Z,46.89
2022-08-11T20:11:48.936Z,47.83
2022-08-11T20:14:40.855Z,48.33
2022-08-11T20:17:32.739Z,49.05
2022-08-11T20:20:25.875Z,49.51
2022-08-11T20:23:36.921Z,49.60
2022-08-11T20:26:31.091Z,50.39
2022-08-11T20:29:23.604Z,50.66
2022-08-11T20:32:14.100Z,51.17
2022-08-11T20:35:05.203Z,51.18
2022-08-11T20:37:56.355Z,51.64
2022-08-11T20:40:47.596Z,51.90
2022-08-11T20:44:07.468Z,52.12
2022-08-11T20:46:50.232Z,52.49
2022-08-11T20:49:51.357Z,53.01
2022-08-11T20:52:48.753Z,52.92
2022-08-11T20:55:52.040Z,53.04
2022-08-11T21:01:56.385Z,53.45
2022-08-11T21:04:54.125Z,53.49
2022-08-11T21:07:56.823Z,53.61
2022-08-11T21:10:52.356Z,53.90
2022-08-11T21:13:46.327Z,54.06
2022-08-11T21:16:42.239Z,54.08
2022-08-11T21:20:00.452Z,54.43
2022-08-11T21:22:59.435Z,54.66
2022-08-11T21:26:34.715Z,54.89
2022-08-11T21:29:28.662Z,54.77
2022-08-11T21:32:20.120Z,55.09
2022-08-11T21:35:26.513Z,55.31
2022-08-11T21:38:18.780Z,55.48
2022-08-11T21:41:10.614Z,55.60
2022-08-11T21:44:01.813Z,55.67
2022-08-11T21:46:53.276Z,55.97
2022-08-11T21:49:43.870Z,56.18
2022-08-11T21:52:34.740Z,56.42
2022-08-11T21:55:25.621Z,56.25
2022-08-11T21:58:18.745Z,56.46
2022-08-11T22:01:09.287Z,56.55
2022-08-11T22:04:01.323Z,56.93
2022-08-11T22:06:51.398Z,56.86
2022-08-11T22:09:41.290Z,56.95
2022-08-11T22:12:35.461Z,57.22
2022-08-11T22:15:29.922Z,57.17
2022-08-11T22:18:22.405Z,57.53
2022-08-11T22:21:16.470Z,57.71
2022-08-11T22:24:30.353Z,57.96
2022-08-11T22:27:21.488Z,58.07
2022-08-11T22:30:10.881Z,58.19
2022-08-11T22:33:02.248Z,58.12
2022-08-11T22:35:53.709Z,58.30
2022-08-11T22:38:44.334Z,58.48
2022-08-11T22:41:34.554Z,58.70
2022-08-11T22:44:24.879Z,58.96
2022-08-11T22:47:18.315Z,58.98
2022-08-11T22:50:15.762Z,58.93
2022-08-11T22:53:07.638Z,59.43
2022-08-11T22:55:58.959Z,59.26
2022-08-11T22:58:50.536Z,59.21
2022-08-11T23:01:40.458Z,59.32
2022-08-11T23:04:53.235Z,59.43
2022-08-11T23:07:50.092Z,59.90
2022-08-11T23:11:09.570Z,60.40
2022-08-11T23:14:00.582Z,60.52
2022-08-11T23:16:50.964Z,60.20
2022-08-11T23:20:04.850Z,60.68
2022-08-11T23:22:52.096Z,61.04
2022-08-11T23:25:43.033Z,60.99
2022-08-11T23:28:33.380Z,61.02
2022-08-11T23:31:24.493Z,60.90
2022-08-11T23:43:13.082Z,61.44
